sensor_id;sensor_type;location;lat;lon;timestamp;temperature;humidity
35593;DHT22;64447;52.140;5.602;2023-07-29T00:00:18;22.00;99.90
35593;DHT22;64447;52.140;5.602;2023-07-29T00:02:45;22.00;99.90
35593;DHT22;64447;52.140;5.602;2023-07-29T00:05:11;22.10;99.90
35593;DHT22;64447;52.140;5.602;2023-07-29T00:07:36;22.10;99.90
35593;DHT22;64447;52.140;5.602;2023-07-29T00:10:03;22.10;99.90
35593;DHT22;64447;52.140;5.602;2023-07-29T00:12:28;22.10;99.90
35593;DHT22;64447;52.140;5.602;2023-07-29T00:14:54;22.10;99.90
35593;DHT22;64447;52.140;5.602;2023-07-29T00:20:42;22.10;99.90
35593;DHT22;64447;52.140;5.602;2023-07-29T00:23:07;22.00;99.90
35593;DHT22;64447;52.140;5.602;2023-07-29T00:25:33;22.00;99.90
35593;DHT22;64447;52.140;5.602;2023-07-29T00:27:59;22.10;99.90
35593;DHT22;64447;52.140;5.602;2023-07-29T00:30:24;22.10;99.90
35593;DHT22;64447;52.140;5.602;2023-07-29T00:32:50;22.00;99.90
35593;DHT22;64447;52.140;5.602;2023-07-29T00:35:15;22.10;99.90
35593;DHT22;64447;52.140;5.602;2023-07-29T00:37:41;22.10;99.90
35593;DHT22;64447;52.140;5.602;2023-07-29T00:40:13;22.00;99.90
35593;DHT22;64447;52.140;5.602;2023-07-29T00:42:39;22.00;99.90
35593;DHT22;64447;52.140;5.602;2023-07-29T00:45:05;22.00;99.90
35593;DHT22;64447;52.140;5.602;2023-07-29T00:50:55;21.90;99.90
35593;DHT22;64447;52.140;5.602;2023-07-29T00:53:20;21.90;99.90
35593;DHT22;64447;52.140;5.602;2023-07-29T00:55:46;21.90;99.90
35593;DHT22;64447;52.140;5.602;2023-07-29T00:58:12;21.70;99.90
35593;DHT22;64447;52.140;5.602;2023-07-29T01:00:38;21.70;99.90
35593;DHT22;64447;52.140;5.602;2023-07-29T01:03:04;21.70;99.90
35593;DHT22;64447;52.140;5.602;2023-07-29T01:05:40;21.70;99.90
35593;DHT22;64447;52.140;5.602;2023-07-29T01:08:19;21.70;99.90
35593;DHT22;64447;52.140;5.602;2023-07-29T01:10:58;21.80;99.90
35593;DHT22;64447;52.140;5.602;2023-07-29T01:16:36;21.60;99.90
35593;DHT22;64447;52.140;5.602;2023-07-29T01:19:06;21.50;99.90
35593;DHT22;64447;52.140;5.602;2023-07-29T01:21:35;21.60;99.90
35593;DHT22;64447;52.140;5.602;2023-07-29T01:24:02;21.60;99.90
35593;DHT22;64447;52.140;5.602;2023-07-29T01:26:27;21.60;99.90
35593;DHT22;64447;52.140;5.602;2023-07-29T01:28:56;21.60;99.90
35593;DHT22;64447;52.140;5.602;2023-07-29T01:31:33;21.70;99.90
35593;DHT22;64447;52.140;5.602;2023-07-29T01:34:09;21.70;99.90
35593;DHT22;64447;52.140;5.602;2023-07-29T01:36:39;21.70;99.90
35593;DHT22;64447;52.140;5.602;2023-07-29T01:39:07;21.70;99.90
35593;DHT22;64447;52.140;5.602;2023-07-29T01:41:34;21.60;99.90
35593;DHT22;64447;52.140;5.602;2023-07-29T01:44:01;21.60;99.90
35593;DHT22;64447;52.140;5.602;2023-07-29T01:46:27;21.60;99.90
35593;DHT22;64447;52.140;5.602;2023-07-29T01:48:52;21.50;99.90
35593;DHT22;64447;52.140;5.602;2023-07-29T01:51:18;21.40;99.90
35593;DHT22;64447;52.140;5.602;2023-07-29T01:53:44;21.30;99.90
35593;DHT22;64447;52.140;5.602;2023-07-29T01:56:09;21.00;99.90
35593;DHT22;64447;52.140;5.602;2023-07-29T01:58:35;21.00;99.90
35593;DHT22;64447;52.140;5.602;2023-07-29T02:01:01;21.00;99.90
35593;DHT22;64447;52.140;5.602;2023-07-29T02:03:26;21.00;99.90
35593;DHT22;64447;52.140;5.602;2023-07-29T02:05:52;20.90;99.90
35593;DHT22;64447;52.140;5.602;2023-07-29T02:08:17;20.90;99.90
35593;DHT22;64447;52.140;5.602;2023-07-29T02:10:43;22.30;99.90
35593;DHT22;64447;52.140;5.602;2023-07-29T02:13:10;20.90;99.90
35593;DHT22;64447;52.140;5.602;2023-07-29T02:15:36;20.90;99.90
35593;DHT22;64447;52.140;5.602;2023-07-29T02:18:02;20.80;99.90
35593;DHT22;64447;52.140;5.602;2023-07-29T02:20:28;20.80;99.90
35593;DHT22;64447;52.140;5.602;2023-07-29T02:22:54;20.70;99.90
35593;DHT22;64447;52.140;5.602;2023-07-29T02:25:20;20.70;99.90
35593;DHT22;64447;52.140;5.602;2023-07-29T02:27:45;20.80;99.90
35593;DHT22;64447;52.140;5.602;2023-07-29T02:30:11;20.90;99.90
35593;DHT22;64447;52.140;5.602;2023-07-29T02:35:59;21.50;99.90
35593;DHT22;64447;52.140;5.602;2023-07-29T02:38:25;20.80;99.90
35593;DHT22;64447;52.140;5.602;2023-07-29T02:40:50;20.80;99.90
35593;DHT22;64447;52.140;5.602;2023-07-29T02:43:16;20.80;99.90
35593;DHT22;64447;52.140;5.602;2023-07-29T02:45:41;20.70;99.90
35593;DHT22;64447;52.140;5.602;2023-07-29T02:48:07;20.70;99.90
35593;DHT22;64447;52.140;5.602;2023-07-29T02:50:34;20.60;99.90
35593;DHT22;64447;52.140;5.602;2023-07-29T02:53:00;20.70;99.90
35593;DHT22;64447;52.140;5.602;2023-07-29T02:55:26;20.70;99.90
35593;DHT22;64447;52.140;5.602;2023-07-29T02:57:52;20.70;99.90
35593;DHT22;64447;52.140;5.602;2023-07-29T03:00:18;20.70;99.90
35593;DHT22;64447;52.140;5.602;2023-07-29T03:06:10;20.40;99.90
35593;DHT22;64447;52.140;5.602;2023-07-29T03:08:36;20.40;99.90
35593;DHT22;64447;52.140;5.602;2023-07-29T03:11:10;20.10;99.90
35593;DHT22;64447;52.140;5.602;2023-07-29T03:13:36;19.80;99.90
35593;DHT22;64447;52.140;5.602;2023-07-29T03:16:10;19.80;99.90
35593;DHT22;64447;52.140;5.602;2023-07-29T03:18:36;19.80;99.90
35593;DHT22;64447;52.140;5.602;2023-07-29T03:21:03;19.80;99.90
35593;DHT22;64447;52.140;5.602;2023-07-29T03:23:29;19.70;99.90
35593;DHT22;64447;52.140;5.602;2023-07-29T03:25:56;19.80;99.90
35593;DHT22;64447;52.140;5.602;2023-07-29T03:28:29;19.90;99.90
35593;DHT22;64447;52.140;5.602;2023-07-29T03:30:58;19.90;99.90
35593;DHT22;64447;52.140;5.602;2023-07-29T03:33:25;19.90;99.90
35593;DHT22;64447;52.140;5.602;2023-07-29T03:35:50;19.90;99.90
35593;DHT22;64447;52.140;5.602;2023-07-29T03:38:16;19.90;99.90
35593;DHT22;64447;52.140;5.602;2023-07-29T03:40:42;19.70;99.90
35593;DHT22;64447;52.140;5.602;2023-07-29T03:43:08;19.70;99.90
35593;DHT22;64447;52.140;5.602;2023-07-29T03:45:35;19.70;99.90
35593;DHT22;64447;52.140;5.602;2023-07-29T03:51:22;20.00;99.90
35593;DHT22;64447;52.140;5.602;2023-07-29T03:53:50;19.80;99.90
35593;DHT22;64447;52.140;5.602;2023-07-29T03:56:15;19.80;99.90
35593;DHT22;64447;52.140;5.602;2023-07-29T03:58:41;19.80;99.90
35593;DHT22;64447;52.140;5.602;2023-07-29T04:01:07;19.80;99.90
35593;DHT22;64447;52.140;5.602;2023-07-29T04:03:33;19.80;99.90
35593;DHT22;64447;52.140;5.602;2023-07-29T04:05:59;19.80;99.90
35593;DHT22;64447;52.140;5.602;2023-07-29T04:08:25;19.80;99.90
35593;DHT22;64447;52.140;5.602;2023-07-29T04:10:50;19.80;99.90
35593;DHT22;64447;52.140;5.602;2023-07-29T04:13:16;19.80;99.90
35593;DHT22;64447;52.140;5.602;2023-07-29T04:15:42;19.80;99.90
35593;DHT22;64447;52.140;5.602;2023-07-29T04:21:13;19.70;99.90
35593;DHT22;64447;52.140;5.602;2023-07-29T04:23:39;19.70;99.90
35593;DHT22;64447;52.140;5.602;2023-07-29T04:26:05;19.60;99.90
35593;DHT22;64447;52.140;5.602;2023-07-29T04:28:31;19.40;99.90
35593;DHT22;64447;52.140;5.602;2023-07-29T04:30:56;19.20;99.90
35593;DHT22;64447;52.140;5.602;2023-07-29T04:36:45;19.30;99.90
35593;DHT22;64447;52.140;5.602;2023-07-29T04:39:11;19.30;99.90
35593;DHT22;64447;52.140;5.602;2023-07-29T04:41:36;19.20;99.90
35593;DHT22;64447;52.140;5.602;2023-07-29T04:44:02;19.10;99.90
35593;DHT22;64447;52.140;5.602;2023-07-29T04:46:28;19.10;99.90
35593;DHT22;64447;52.140;5.602;2023-07-29T04:48:53;19.10;99.90
35593;DHT22;64447;52.140;5.602;2023-07-29T04:51:19;19.20;99.90
35593;DHT22;64447;52.140;5.602;2023-07-29T04:53:45;19.20;99.90
35593;DHT22;64447;52.140;5.602;2023-07-29T04:56:10;19.40;99.90
35593;DHT22;64447;52.140;5.602;2023-07-29T04:58:36;19.40;99.90
35593;DHT22;64447;52.140;5.602;2023-07-29T05:01:03;19.40;99.90
35593;DHT22;64447;52.140;5.602;2023-07-29T05:06:51;19.40;99.90
35593;DHT22;64447;52.140;5.602;2023-07-29T05:09:18;19.40;99.90
35593;DHT22;64447;52.140;5.602;2023-07-29T05:11:45;19.30;99.90
35593;DHT22;64447;52.140;5.602;2023-07-29T05:14:12;19.40;99.90
35593;DHT22;64447;52.140;5.602;2023-07-29T05:16:38;19.20;99.90
35593;DHT22;64447;52.140;5.602;2023-07-29T05:19:04;19.20;99.90
35593;DHT22;64447;52.140;5.602;2023-07-29T05:21:29;19.30;99.90
35593;DHT22;64447;52.140;5.602;2023-07-29T05:23:55;19.30;99.90
35593;DHT22;64447;52.140;5.602;2023-07-29T05:26:22;19.10;99.90
35593;DHT22;64447;52.140;5.602;2023-07-29T05:28:47;19.20;99.90
35593;DHT22;64447;52.140;5.602;2023-07-29T05:31:13;19.30;99.90
35593;DHT22;64447;52.140;5.602;2023-07-29T05:37:00;19.40;99.90
35593;DHT22;64447;52.140;5.602;2023-07-29T05:39:26;19.40;99.90
35593;DHT22;64447;52.140;5.602;2023-07-29T05:41:51;19.40;99.90
35593;DHT22;64447;52.140;5.602;2023-07-29T05:44:17;19.20;99.90
35593;DHT22;64447;52.140;5.602;2023-07-29T05:46:42;19.20;99.90
35593;DHT22;64447;52.140;5.602;2023-07-29T05:49:08;19.10;99.90
35593;DHT22;64447;52.140;5.602;2023-07-29T05:51:33;19.00;99.90
35593;DHT22;64447;52.140;5.602;2023-07-29T05:53:59;19.10;99.90
35593;DHT22;64447;52.140;5.602;2023-07-29T05:56:25;19.10;99.90
35593;DHT22;64447;52.140;5.602;2023-07-29T05:58:50;19.10;99.90
35593;DHT22;64447;52.140;5.602;2023-07-29T06:01:16;19.20;99.90
35593;DHT22;64447;52.140;5.602;2023-07-29T06:07:04;19.20;99.90
35593;DHT22;64447;52.140;5.602;2023-07-29T06:09:30;19.00;99.90
35593;DHT22;64447;52.140;5.602;2023-07-29T06:11:56;19.10;99.90
35593;DHT22;64447;52.140;5.602;2023-07-29T06:14:21;18.90;99.90
35593;DHT22;64447;52.140;5.602;2023-07-29T06:16:47;18.80;99.90
35593;DHT22;64447;52.140;5.602;2023-07-29T06:19:12;18.70;99.90
35593;DHT22;64447;52.140;5.602;2023-07-29T06:21:38;18.70;99.90
35593;DHT22;64447;52.140;5.602;2023-07-29T06:24:04;18.80;99.90
35593;DHT22;64447;52.140;5.602;2023-07-29T06:26:29;18.80;99.90
35593;DHT22;64447;52.140;5.602;2023-07-29T06:28:55;18.80;99.90
35593;DHT22;64447;52.140;5.602;2023-07-29T06:31:20;18.80;99.90
35593;DHT22;64447;52.140;5.602;2023-07-29T06:36:49;18.90;99.90
35593;DHT22;64447;52.140;5.602;2023-07-29T06:39:14;19.00;99.90
35593;DHT22;64447;52.140;5.602;2023-07-29T06:41:40;19.10;99.90
35593;DHT22;64447;52.140;5.602;2023-07-29T06:44:05;19.10;99.90
35593;DHT22;64447;52.140;5.602;2023-07-29T06:46:31;19.20;99.90
35593;DHT22;64447;52.140;5.602;2023-07-29T06:52:00;19.20;99.90
35593;DHT22;64447;52.140;5.602;2023-07-29T06:54:26;19.40;99.90
35593;DHT22;64447;52.140;5.602;2023-07-29T06:56:52;19.50;99.90
35593;DHT22;64447;52.140;5.602;2023-07-29T06:59:17;19.40;99.90
35593;DHT22;64447;52.140;5.602;2023-07-29T07:01:42;19.40;99.90
35593;DHT22;64447;52.140;5.602;2023-07-29T07:07:11;19.40;99.90
35593;DHT22;64447;52.140;5.602;2023-07-29T07:09:36;19.50;99.90
35593;DHT22;64447;52.140;5.602;2023-07-29T07:12:02;19.40;99.90
35593;DHT22;64447;52.140;5.602;2023-07-29T07:14:27;19.40;99.90
35593;DHT22;64447;52.140;5.602;2023-07-29T07:16:53;19.50;99.90
35593;DHT22;64447;52.140;5.602;2023-07-29T07:22:22;19.50;99.90
35593;DHT22;64447;52.140;5.602;2023-07-29T07:24:47;19.60;99.90
35593;DHT22;64447;52.140;5.602;2023-07-29T07:27:13;19.40;99.90
35593;DHT22;64447;52.140;5.602;2023-07-29T07:29:38;19.50;99.90
35593;DHT22;64447;52.140;5.602;2023-07-29T07:32:04;19.70;99.90
35593;DHT22;64447;52.140;5.602;2023-07-29T07:34:29;19.80;99.90
35593;DHT22;64447;52.140;5.602;2023-07-29T07:36:55;19.80;99.90
35593;DHT22;64447;52.140;5.602;2023-07-29T07:39:21;19.90;99.90
35593;DHT22;64447;52.140;5.602;2023-07-29T07:41:46;20.00;99.90
35593;DHT22;64447;52.140;5.602;2023-07-29T07:44:12;19.90;99.90
35593;DHT22;64447;52.140;5.602;2023-07-29T07:46:40;19.90;99.90
35593;DHT22;64447;52.140;5.602;2023-07-29T07:52:09;20.20;99.90
35593;DHT22;64447;52.140;5.602;2023-07-29T07:54:34;20.30;99.90
35593;DHT22;64447;52.140;5.602;2023-07-29T07:57:00;20.30;99.90
35593;DHT22;64447;52.140;5.602;2023-07-29T07:59:25;20.30;99.90
35593;DHT22;64447;52.140;5.602;2023-07-29T08:01:51;20.40;99.90
35593;DHT22;64447;52.140;5.602;2023-07-29T08:07:20;20.30;99.90
35593;DHT22;64447;52.140;5.602;2023-07-29T08:09:46;20.30;99.90
35593;DHT22;64447;52.140;5.602;2023-07-29T08:12:12;20.50;99.90
35593;DHT22;64447;52.140;5.602;2023-07-29T08:14:37;20.60;99.90
35593;DHT22;64447;52.140;5.602;2023-07-29T08:17:03;20.60;99.90
35593;DHT22;64447;52.140;5.602;2023-07-29T08:22:34;20.70;99.90
35593;DHT22;64447;52.140;5.602;2023-07-29T08:25:00;20.60;99.90
35593;DHT22;64447;52.140;5.602;2023-07-29T08:27:26;20.60;99.90
35593;DHT22;64447;52.140;5.602;2023-07-29T08:29:51;20.70;99.90
35593;DHT22;64447;52.140;5.602;2023-07-29T08:32:18;20.80;99.90
35593;DHT22;64447;52.140;5.602;2023-07-29T08:34:44;20.90;99.90
35593;DHT22;64447;52.140;5.602;2023-07-29T08:37:09;21.10;99.90
35593;DHT22;64447;52.140;5.602;2023-07-29T08:39:35;21.20;99.90
35593;DHT22;64447;52.140;5.602;2023-07-29T08:42:04;21.30;99.90
35593;DHT22;64447;52.140;5.602;2023-07-29T08:44:34;21.30;99.90
35593;DHT22;64447;52.140;5.602;2023-07-29T08:47:00;21.40;99.90
35593;DHT22;64447;52.140;5.602;2023-07-29T08:52:29;21.60;99.90
35593;DHT22;64447;52.140;5.602;2023-07-29T08:55:00;21.60;99.90
35593;DHT22;64447;52.140;5.602;2023-07-29T08:57:25;21.60;99.90
35593;DHT22;64447;52.140;5.602;2023-07-29T08:59:51;21.70;99.90
35593;DHT22;64447;52.140;5.602;2023-07-29T09:02:17;21.50;99.90
35593;DHT22;64447;52.140;5.602;2023-07-29T09:07:59;21.30;99.90
35593;DHT22;64447;52.140;5.602;2023-07-29T09:10:25;21.30;99.90
35593;DHT22;64447;52.140;5.602;2023-07-29T09:12:52;21.40;99.90
35593;DHT22;64447;52.140;5.602;2023-07-29T09:15:27;21.30;99.90
35593;DHT22;64447;52.140;5.602;2023-07-29T09:17:53;21.30;99.90
35593;DHT22;64447;52.140;5.602;2023-07-29T09:20:27;21.30;99.90
35593;DHT22;64447;52.140;5.602;2023-07-29T09:22:58;21.40;99.90
35593;DHT22;64447;52.140;5.602;2023-07-29T09:25:25;21.60;99.90
35593;DHT22;64447;52.140;5.602;2023-07-29T09:27:51;21.80;99.90
35593;DHT22;64447;52.140;5.602;2023-07-29T09:30:17;21.80;99.90
35593;DHT22;64447;52.140;5.602;2023-07-29T09:32:43;21.90;99.90
35593;DHT22;64447;52.140;5.602;2023-07-29T09:35:12;21.90;99.90
35593;DHT22;64447;52.140;5.602;2023-07-29T09:37:39;22.10;99.90
35593;DHT22;64447;52.140;5.602;2023-07-29T09:40:06;22.20;99.90
35593;DHT22;64447;52.140;5.602;2023-07-29T09:42:32;22.40;99.90
35593;DHT22;64447;52.140;5.602;2023-07-29T09:44:58;22.50;99.90
35593;DHT22;64447;52.140;5.602;2023-07-29T09:47:25;22.60;99.90
35593;DHT22;64447;52.140;5.602;2023-07-29T09:53:13;22.70;99.90
35593;DHT22;64447;52.140;5.602;2023-07-29T09:55:39;22.90;99.90
35593;DHT22;64447;52.140;5.602;2023-07-29T09:58:04;22.70;99.90
35593;DHT22;64447;52.140;5.602;2023-07-29T10:00:33;22.40;99.90
35593;DHT22;64447;52.140;5.602;2023-07-29T10:03:00;22.20;99.90
35593;DHT22;64447;52.140;5.602;2023-07-29T10:05:26;22.20;99.90
35593;DHT22;64447;52.140;5.602;2023-07-29T10:07:52;22.10;99.90
35593;DHT22;64447;52.140;5.602;2023-07-29T10:10:18;22.10;99.90
35593;DHT22;64447;52.140;5.602;2023-07-29T10:12:46;22.00;99.90
35593;DHT22;64447;52.140;5.602;2023-07-29T10:15:12;21.80;99.90
35593;DHT22;64447;52.140;5.602;2023-07-29T10:17:39;21.80;99.90
35593;DHT22;64447;52.140;5.602;2023-07-29T10:23:27;21.80;99.90
35593;DHT22;64447;52.140;5.602;2023-07-29T10:25:54;21.20;99.90
35593;DHT22;64447;52.140;5.602;2023-07-29T10:28:25;20.70;99.90
35593;DHT22;64447;52.140;5.602;2023-07-29T10:30:51;20.70;99.90
35593;DHT22;64447;52.140;5.602;2023-07-29T10:33:17;20.60;99.90
35593;DHT22;64447;52.140;5.602;2023-07-29T10:35:43;20.70;99.90
35593;DHT22;64447;52.140;5.602;2023-07-29T10:38:09;20.40;99.90
35593;DHT22;64447;52.140;5.602;2023-07-29T10:40:46;20.50;99.90
35593;DHT22;64447;52.140;5.602;2023-07-29T10:43:19;20.80;99.90
35593;DHT22;64447;52.140;5.602;2023-07-29T10:45:45;20.90;99.90
35593;DHT22;64447;52.140;5.602;2023-07-29T10:48:11;20.80;99.90
35593;DHT22;64447;52.140;5.602;2023-07-29T10:50:37;20.80;99.90
35593;DHT22;64447;52.140;5.602;2023-07-29T10:53:02;21.10;99.90
35593;DHT22;64447;52.140;5.602;2023-07-29T10:55:29;21.20;99.90
35593;DHT22;64447;52.140;5.602;2023-07-29T10:58:29;21.20;99.90
35593;DHT22;64447;52.140;5.602;2023-07-29T11:00:47;21.20;99.90
35593;DHT22;64447;52.140;5.602;2023-07-29T11:03:14;21.40;99.90
35593;DHT22;64447;52.140;5.602;2023-07-29T11:05:47;21.30;99.90
35593;DHT22;64447;52.140;5.602;2023-07-29T11:08:29;21.10;99.90
35593;DHT22;64447;52.140;5.602;2023-07-29T11:11:04;21.20;99.90
35593;DHT22;64447;52.140;5.602;2023-07-29T11:13:32;21.30;99.90
35593;DHT22;64447;52.140;5.602;2023-07-29T11:15:59;21.40;99.90
35593;DHT22;64447;52.140;5.602;2023-07-29T11:18:29;21.60;99.90
35593;DHT22;64447;52.140;5.602;2023-07-29T11:20:56;21.70;99.90
35593;DHT22;64447;52.140;5.602;2023-07-29T11:23:28;21.90;99.90
35593;DHT22;64447;52.140;5.602;2023-07-29T11:25:55;22.00;99.90
35593;DHT22;64447;52.140;5.602;2023-07-29T11:28:21;22.10;99.90
35593;DHT22;64447;52.140;5.602;2023-07-29T11:30:49;22.10;99.90
35593;DHT22;64447;52.140;5.602;2023-07-29T11:33:19;22.30;99.90
35593;DHT22;64447;52.140;5.602;2023-07-29T11:35:44;22.20;99.90
35593;DHT22;64447;52.140;5.602;2023-07-29T11:38:15;22.20;99.90
35593;DHT22;64447;52.140;5.602;2023-07-29T11:40:57;22.30;99.90
35593;DHT22;64447;52.140;5.602;2023-07-29T11:43:23;22.40;99.90
35593;DHT22;64447;52.140;5.602;2023-07-29T11:45:50;22.10;99.90
35593;DHT22;64447;52.140;5.602;2023-07-29T11:48:16;21.90;99.90
35593;DHT22;64447;52.140;5.602;2023-07-29T11:54:05;21.60;99.90
35593;DHT22;64447;52.140;5.602;2023-07-29T11:56:32;21.60;99.90
35593;DHT22;64447;52.140;5.602;2023-07-29T11:58:58;21.50;99.90
35593;DHT22;64447;52.140;5.602;2023-07-29T12:01:23;21.70;99.90
35593;DHT22;64447;52.140;5.602;2023-07-29T12:03:50;21.70;99.90
35593;DHT22;64447;52.140;5.602;2023-07-29T12:06:17;21.50;99.90
35593;DHT22;64447;52.140;5.602;2023-07-29T12:08:44;21.30;99.90
35593;DHT22;64447;52.140;5.602;2023-07-29T12:11:10;21.40;99.90
35593;DHT22;64447;52.140;5.602;2023-07-29T12:13:38;21.20;99.90
35593;DHT22;64447;52.140;5.602;2023-07-29T12:16:04;21.10;99.90
35593;DHT22;64447;52.140;5.602;2023-07-29T12:18:30;21.20;99.90
35593;DHT22;64447;52.140;5.602;2023-07-29T12:24:18;21.30;99.90
35593;DHT22;64447;52.140;5.602;2023-07-29T12:26:44;21.50;99.90
35593;DHT22;64447;52.140;5.602;2023-07-29T12:29:17;21.70;99.90
35593;DHT22;64447;52.140;5.602;2023-07-29T12:31:45;21.70;99.90
35593;DHT22;64447;52.140;5.602;2023-07-29T12:34:20;21.80;99.90
35593;DHT22;64447;52.140;5.602;2023-07-29T12:36:50;21.60;99.90
35593;DHT22;64447;52.140;5.602;2023-07-29T12:39:27;21.90;99.90
35593;DHT22;64447;52.140;5.602;2023-07-29T12:41:57;22.30;99.90
35593;DHT22;64447;52.140;5.602;2023-07-29T12:44:24;22.50;99.90
35593;DHT22;64447;52.140;5.602;2023-07-29T12:46:51;22.80;99.90
35593;DHT22;64447;52.140;5.602;2023-07-29T12:52:39;23.10;99.90
35593;DHT22;64447;52.140;5.602;2023-07-29T12:55:05;22.90;99.90
35593;DHT22;64447;52.140;5.602;2023-07-29T12:57:33;23.10;99.90
35593;DHT22;64447;52.140;5.602;2023-07-29T12:59:59;23.00;99.90
35593;DHT22;64447;52.140;5.602;2023-07-29T13:02:24;22.80;99.90
35593;DHT22;64447;52.140;5.602;2023-07-29T13:08:12;22.80;99.90
35593;DHT22;64447;52.140;5.602;2023-07-29T13:10:37;23.00;99.90
35593;DHT22;64447;52.140;5.602;2023-07-29T13:13:03;23.30;99.90
35593;DHT22;64447;52.140;5.602;2023-07-29T13:15:28;23.30;99.90
35593;DHT22;64447;52.140;5.602;2023-07-29T13:17:54;23.40;99.90
35593;DHT22;64447;52.140;5.602;2023-07-29T13:23:42;23.60;99.90
35593;DHT22;64447;52.140;5.602;2023-07-29T13:26:07;23.50;99.90
35593;DHT22;64447;52.140;5.602;2023-07-29T13:28:33;23.50;99.90
35593;DHT22;64447;52.140;5.602;2023-07-29T13:30:59;23.60;99.90
35593;DHT22;64447;52.140;5.602;2023-07-29T13:33:24;23.80;99.90
35593;DHT22;64447;52.140;5.602;2023-07-29T13:39:39;24.00;99.90
35593;DHT22;64447;52.140;5.602;2023-07-29T13:42:04;23.90;99.90
35593;DHT22;64447;52.140;5.602;2023-07-29T13:44:30;24.00;99.90
35593;DHT22;64447;52.140;5.602;2023-07-29T13:46:56;24.00;99.90
35593;DHT22;64447;52.140;5.602;2023-07-29T13:49:22;23.90;99.90
35593;DHT22;64447;52.140;5.602;2023-07-29T13:55:10;23.70;99.90
35593;DHT22;64447;52.140;5.602;2023-07-29T13:57:37;23.90;99.90
35593;DHT22;64447;52.140;5.602;2023-07-29T14:00:05;24.00;99.90
35593;DHT22;64447;52.140;5.602;2023-07-29T14:02:31;24.20;99.90
35593;DHT22;64447;52.140;5.602;2023-07-29T14:04:57;24.30;99.90
35593;DHT22;64447;52.140;5.602;2023-07-29T14:07:22;24.60;99.90
35593;DHT22;64447;52.140;5.602;2023-07-29T14:09:49;24.40;99.90
35593;DHT22;64447;52.140;5.602;2023-07-29T14:12:14;24.40;99.90
35593;DHT22;64447;52.140;5.602;2023-07-29T14:14:43;24.40;99.90
35593;DHT22;64447;52.140;5.602;2023-07-29T14:17:09;24.40;99.90
35593;DHT22;64447;52.140;5.602;2023-07-29T14:19:38;24.40;99.90
35593;DHT22;64447;52.140;5.602;2023-07-29T14:25:26;24.60;99.90
35593;DHT22;64447;52.140;5.602;2023-07-29T14:27:52;24.30;99.90
35593;DHT22;64447;52.140;5.602;2023-07-29T14:30:18;24.40;99.90
35593;DHT22;64447;52.140;5.602;2023-07-29T14:32:44;24.50;99.90
35593;DHT22;64447;52.140;5.602;2023-07-29T14:39:19;24.70;99.90
35593;DHT22;64447;52.140;5.602;2023-07-29T14:41:45;24.60;99.90
35593;DHT22;64447;52.140;5.602;2023-07-29T14:44:10;24.80;99.90
35593;DHT22;64447;52.140;5.602;2023-07-29T14:46:36;24.70;99.90
35593;DHT22;64447;52.140;5.602;2023-07-29T14:49:02;24.70;99.90
35593;DHT22;64447;52.140;5.602;2023-07-29T14:54:49;25.10;99.90
35593;DHT22;64447;52.140;5.602;2023-07-29T14:57:15;25.40;99.90
35593;DHT22;64447;52.140;5.602;2023-07-29T14:59:42;25.10;99.90
35593;DHT22;64447;52.140;5.602;2023-07-29T15:02:08;25.00;99.90
35593;DHT22;64447;52.140;5.602;2023-07-29T15:04:34;25.20;99.90
35593;DHT22;64447;52.140;5.602;2023-07-29T15:10:21;25.20;99.90
35593;DHT22;64447;52.140;5.602;2023-07-29T15:12:47;25.00;99.90
35593;DHT22;64447;52.140;5.602;2023-07-29T15:15:13;25.10;99.90
35593;DHT22;64447;52.140;5.602;2023-07-29T15:17:38;24.90;99.90
35593;DHT22;64447;52.140;5.602;2023-07-29T15:20:04;25.00;99.90
35593;DHT22;64447;52.140;5.602;2023-07-29T15:25:33;24.50;99.90
35593;DHT22;64447;52.140;5.602;2023-07-29T15:27:58;24.20;99.90
35593;DHT22;64447;52.140;5.602;2023-07-29T15:30:24;24.40;99.90
35593;DHT22;64447;52.140;5.602;2023-07-29T15:32:50;24.30;99.90
35593;DHT22;64447;52.140;5.602;2023-07-29T15:35:15;24.40;99.90
35593;DHT22;64447;52.140;5.602;2023-07-29T15:40:44;24.50;99.90
35593;DHT22;64447;52.140;5.602;2023-07-29T15:43:09;24.50;99.90
35593;DHT22;64447;52.140;5.602;2023-07-29T15:45:35;24.50;99.90
35593;DHT22;64447;52.140;5.602;2023-07-29T15:48:01;24.40;99.90
35593;DHT22;64447;52.140;5.602;2023-07-29T15:50:27;24.30;99.90
35593;DHT22;64447;52.140;5.602;2023-07-29T15:55:55;24.30;99.90
35593;DHT22;64447;52.140;5.602;2023-07-29T15:58:21;24.10;99.90
35593;DHT22;64447;52.140;5.602;2023-07-29T16:00:47;23.80;99.90
35593;DHT22;64447;52.140;5.602;2023-07-29T16:03:13;23.60;99.90
35593;DHT22;64447;52.140;5.602;2023-07-29T16:05:38;22.60;99.90
35593;DHT22;64447;52.140;5.602;2023-07-29T16:11:07;22.00;99.90
35593;DHT22;64447;52.140;5.602;2023-07-29T16:13:32;22.00;99.90
35593;DHT22;64447;52.140;5.602;2023-07-29T16:15:58;22.00;99.90
35593;DHT22;64447;52.140;5.602;2023-07-29T16:18:24;22.10;99.90
35593;DHT22;64447;52.140;5.602;2023-07-29T16:20:49;22.50;99.90
35593;DHT22;64447;52.140;5.602;2023-07-29T16:23:15;22.80;99.90
35593;DHT22;64447;52.140;5.602;2023-07-29T16:25:40;22.90;99.90
35593;DHT22;64447;52.140;5.602;2023-07-29T16:28:06;23.10;99.90
35593;DHT22;64447;52.140;5.602;2023-07-29T16:30:31;23.30;99.90
35593;DHT22;64447;52.140;5.602;2023-07-29T16:32:57;23.10;99.90
35593;DHT22;64447;52.140;5.602;2023-07-29T16:35:22;23.20;99.90
35593;DHT22;64447;52.140;5.602;2023-07-29T16:40:51;22.80;99.90
35593;DHT22;64447;52.140;5.602;2023-07-29T16:43:17;22.50;99.90
35593;DHT22;64447;52.140;5.602;2023-07-29T16:45:42;22.30;99.90
35593;DHT22;64447;52.140;5.602;2023-07-29T16:48:07;22.40;99.90
35593;DHT22;64447;52.140;5.602;2023-07-29T16:50:33;22.50;99.90
35593;DHT22;64447;52.140;5.602;2023-07-29T16:56:03;22.70;99.90
35593;DHT22;64447;52.140;5.602;2023-07-29T16:58:28;22.70;99.90
35593;DHT22;64447;52.140;5.602;2023-07-29T17:00:54;22.60;99.90
35593;DHT22;64447;52.140;5.602;2023-07-29T17:03:19;22.60;99.90
35593;DHT22;64447;52.140;5.602;2023-07-29T17:05:45;22.50;99.90
35593;DHT22;64447;52.140;5.602;2023-07-29T17:11:14;22.60;99.90
35593;DHT22;64447;52.140;5.602;2023-07-29T17:13:39;22.80;99.90
35593;DHT22;64447;52.140;5.602;2023-07-29T17:16:04;23.10;99.90
35593;DHT22;64447;52.140;5.602;2023-07-29T17:18:30;23.30;99.90
35593;DHT22;64447;52.140;5.602;2023-07-29T17:20:55;23.60;99.90
35593;DHT22;64447;52.140;5.602;2023-07-29T17:26:24;23.20;99.90
35593;DHT22;64447;52.140;5.602;2023-07-29T17:28:50;23.00;99.90
35593;DHT22;64447;52.140;5.602;2023-07-29T17:31:15;22.90;99.90
35593;DHT22;64447;52.140;5.602;2023-07-29T17:33:41;22.70;99.90
35593;DHT22;64447;52.140;5.602;2023-07-29T17:36:07;22.60;99.90
35593;DHT22;64447;52.140;5.602;2023-07-29T17:41:36;22.20;99.90